createdAt,value
2023-02-02T00:01:33.911Z,77.17
2023-02-02T00:04:01.264Z,77.32
2023-02-02T00:06:29.622Z,77.05
2023-02-02T00:08:58.161Z,76.86
2023-02-02T00:11:25.688Z,77.43
2023-02-02T00:13:52.336Z,77.49
2023-02-02T00:16:38.372Z,77.24
2023-02-02T00:19:10.990Z,77.30
2023-02-02T00:21:38.336Z,77.51
2023-02-02T00:24:06.785Z,77.56
2023-02-02T00:26:33.464Z,77.66
2023-02-02T00:29:00.517Z,77.73
2023-02-02T00:31:27.303Z,77.54
2023-02-02T00:33:53.948Z,77.49
2023-02-02T00:36:21.469Z,77.65
2023-02-02T00:38:49.199Z,77.68
2023-02-02T00:41:16.407Z,77.66
2023-02-02T00:43:43.342Z,78.00
2023-02-02T00:46:17.560Z,78.59
2023-02-02T00:48:44.484Z,78.26
2023-02-02T00:51:11.145Z,78.57
2023-02-02T00:53:37.691Z,78.83
2023-02-02T00:56:04.495Z,78.97
2023-02-02T00:58:31.039Z,79.09
2023-02-02T01:00:57.673Z,79.31
2023-02-02T01:03:24.309Z,78.98
2023-02-02T01:05:52.079Z,79.34
2023-02-02T01:08:18.797Z,79.00
2023-02-02T01:10:45.392Z,79.02
2023-02-02T01:13:11.961Z,79.54
2023-02-02T01:15:38.493Z,79.47
2023-02-02T01:18:05.097Z,79.88
2023-02-02T01:20:32.381Z,79.96
2023-02-02T01:22:58.925Z,79.73
2023-02-02T01:25:25.929Z,80.23
2023-02-02T01:27:52.617Z,79.96
2023-02-02T01:30:19.230Z,80.08
2023-02-02T01:32:45.871Z,80.24
2023-02-02T01:35:12.559Z,79.98
2023-02-02T01:37:39.410Z,79.79
2023-02-02T01:40:07.169Z,79.93
2023-02-02T01:42:33.737Z,79.83
2023-02-02T01:45:13.587Z,80.16
2023-02-02T01:47:46.168Z,80.18
2023-02-02T01:50:15.196Z,80.81
2023-02-02T01:52:45.960Z,80.48
2023-02-02T01:55:15.774Z,80.38
2023-02-02T01:57:48.469Z,80.76
2023-02-02T02:00:16.938Z,80.71
2023-02-02T02:02:49.369Z,80.83
2023-02-02T02:05:21.734Z,80.70
2023-02-02T02:07:51.926Z,80.65
2023-02-02T02:10:19.101Z,81.07
2023-02-02T02:12:48.299Z,80.82
2023-02-02T02:15:33.390Z,80.89
2023-02-02T02:18:15.894Z,80.79
2023-02-02T02:21:19.241Z,80.82
2023-02-02T02:24:26.667Z,80.89
2023-02-02T02:27:07.554Z,81.32
2023-02-02T02:30:26.944Z,81.42
2023-02-02T02:33:02.247Z,81.39
2023-02-02T02:35:32.369Z,81.43
2023-02-02T02:38:16.129Z,81.39
2023-02-02T02:40:49.647Z,81.69
2023-02-02T02:43:41.947Z,81.83
2023-02-02T02:46:09.938Z,82.18
2023-02-02T02:48:36.567Z,81.74
2023-02-02T02:51:08.059Z,82.05
2023-02-02T02:53:37.048Z,81.98
2023-02-02T02:56:18.762Z,82.38
2023-02-02T02:59:03.990Z,82.23
2023-02-02T03:01:40.295Z,82.63
2023-02-02T03:04:26.823Z,82.59
2023-02-02T03:07:10.353Z,82.58
2023-02-02T03:09:42.661Z,82.59
2023-02-02T03:12:09.316Z,82.69
2023-02-02T03:14:37.099Z,82.93
2023-02-02T03:17:03.966Z,82.59
2023-02-02T03:19:30.611Z,82.46
2023-02-02T03:21:57.163Z,82.83
2023-02-02T03:24:23.783Z,82.84
2023-02-02T03:26:50.353Z,82.66
2023-02-02T03:29:17.407Z,82.92
2023-02-02T03:31:44.149Z,82.94
2023-02-02T03:34:10.688Z,82.83
2023-02-02T03:36:37.243Z,82.65
2023-02-02T03:39:03.900Z,82.91
2023-02-02T03:41:30.501Z,82.65
2023-02-02T03:43:57.180Z,82.14
2023-02-02T03:46:23.726Z,82.62
2023-02-02T03:48:50.287Z,82.66
2023-02-02T03:51:17.040Z,82.33
2023-02-02T03:53:49.408Z,82.63
2023-02-02T03:56:16.408Z,82.48
2023-02-02T03:58:42.947Z,82.36
2023-02-02T04:01:14.639Z,82.70
2023-02-02T04:03:41.770Z,82.75
2023-02-02T04:06:08.564Z,82.39
2023-02-02T04:08:35.238Z,82.50
2023-02-02T04:11:02.100Z,82.48
2023-02-02T04:13:28.675Z,82.72
2023-02-02T04:16:00.051Z,82.81
2023-02-02T04:18:27.055Z,82.72
2023-02-02T04:21:02.485Z,82.54
2023-02-02T04:23:31.854Z,82.78
2023-02-02T04:25:59.541Z,83.05
2023-02-02T04:28:27.357Z,82.59
2023-02-02T04:30:55.735Z,82.89
2023-02-02T04:33:24.819Z,83.27
2023-02-02T04:35:51.455Z,82.77
2023-02-02T04:38:18.475Z,82.62
2023-02-02T04:40:47.806Z,82.37
2023-02-02T04:43:14.439Z,82.61
2023-02-02T04:45:42.421Z,82.13
2023-02-02T04:48:09.522Z,82.86
2023-02-02T04:50:36.071Z,82.31
2023-02-02T04:53:04.049Z,82.69
2023-02-02T04:55:30.620Z,82.81
2023-02-02T04:57:57.228Z,82.31
2023-02-02T05:00:23.964Z,82.36
2023-02-02T05:02:50.502Z,82.48
2023-02-02T05:05:17.085Z,82.16
2023-02-02T05:07:43.664Z,82.39
2023-02-02T05:10:11.060Z,82.26
2023-02-02T05:12:37.752Z,81.91
2023-02-02T05:15:05.678Z,82.00
2023-02-02T05:17:32.931Z,81.87
2023-02-02T05:19:59.499Z,82.15
2023-02-02T05:22:27.025Z,81.93
2023-02-02T05:24:53.566Z,81.77
2023-02-02T05:27:20.135Z,81.83
2023-02-02T05:29:47.539Z,81.95
2023-02-02T05:32:14.187Z,82.22
2023-02-02T05:34:40.741Z,82.30
2023-02-02T05:37:07.267Z,81.66
2023-02-02T05:39:33.941Z,81.76
2023-02-02T05:42:00.510Z,81.80
2023-02-02T05:44:27.071Z,81.63
2023-02-02T05:46:53.655Z,82.09
2023-02-02T05:49:20.220Z,82.03
2023-02-02T05:51:50.093Z,81.92
2023-02-02T05:54:20.426Z,81.59
2023-02-02T05:56:48.573Z,82.09
2023-02-02T05:59:15.314Z,82.25
2023-02-02T06:01:41.871Z,82.37
2023-02-02T06:04:08.492Z,80.56
2023-02-02T06:06:35.819Z,80.49
2023-02-02T06:09:02.725Z,78.63
2023-02-02T06:11:29.733Z,78.22
2023-02-02T06:13:56.567Z,78.41
2023-02-02T06:16:23.418Z,78.08
2023-02-02T06:18:50.037Z,78.55
2023-02-02T06:21:17.129Z,78.52
2023-02-02T06:23:45.848Z,79.02
2023-02-02T06:26:13.406Z,78.56
2023-02-02T06:28:40.150Z,79.00
2023-02-02T06:31:11.601Z,79.09
2023-02-02T06:33:38.303Z,79.41
2023-02-02T06:36:07.651Z,79.75
2023-02-02T06:38:34.203Z,79.98
2023-02-02T06:41:02.232Z,80.48
2023-02-02T06:43:29.415Z,80.33
2023-02-02T06:45:59.370Z,80.82
2023-02-02T06:48:26.605Z,80.63
2023-02-02T06:50:54.100Z,80.72
2023-02-02T06:53:23.313Z,80.89
2023-02-02T06:55:54.546Z,81.04
2023-02-02T06:58:21.297Z,80.98
2023-02-02T07:00:48.310Z,81.52
2023-02-02T07:03:16.280Z,81.29
2023-02-02T07:05:43.015Z,81.23
2023-02-02T07:08:09.675Z,81.55
2023-02-02T07:11:13.742Z,81.40
2023-02-02T07:13:26.573Z,81.79
2023-02-02T07:15:54.669Z,81.94
2023-02-02T07:18:21.380Z,81.75
2023-02-02T07:20:47.934Z,82.05
2023-02-02T07:23:14.531Z,82.16
2023-02-02T07:25:43.612Z,82.40
2023-02-02T07:28:10.455Z,82.65
2023-02-02T07:30:37.022Z,82.40
2023-02-02T07:33:03.678Z,82.66
2023-02-02T07:35:30.367Z,82.94
2023-02-02T07:37:57.414Z,83.37
2023-02-02T07:40:23.986Z,82.88
2023-02-02T07:42:50.639Z,82.79
2023-02-02T07:45:26.708Z,82.83
2023-02-02T07:48:00.593Z,82.81
2023-02-02T07:50:28.590Z,82.94
2023-02-02T07:52:55.837Z,82.61
2023-02-02T07:55:22.508Z,82.71
2023-02-02T07:57:49.040Z,82.78
2023-02-02T08:00:15.947Z,82.93
2023-02-02T08:02:42.548Z,82.82
2023-02-02T08:05:09.474Z,82.94
2023-02-02T08:07:36.392Z,82.77
2023-02-02T08:10:03.306Z,82.74
2023-02-02T08:12:29.837Z,82.84
2023-02-02T08:14:56.654Z,82.85
2023-02-02T08:17:23.648Z,82.77
2023-02-02T08:19:50.399Z,82.62
2023-02-02T08:22:19.403Z,82.81
2023-02-02T08:24:46.836Z,82.67
2023-02-02T08:27:13.448Z,82.70
2023-02-02T08:29:40.049Z,83.07
2023-02-02T08:32:06.715Z,82.74
2023-02-02T08:34:36.951Z,83.06
2023-02-02T08:37:04.440Z,82.41
2023-02-02T08:39:31.094Z,82.60
2023-02-02T08:41:58.277Z,82.32
2023-02-02T08:44:27.602Z,82.61
2023-02-02T08:47:09.686Z,82.37
2023-02-02T08:49:36.471Z,82.10
2023-02-02T08:52:03.096Z,82.11
2023-02-02T08:54:29.700Z,81.76
2023-02-02T08:56:56.766Z,81.34
2023-02-02T08:59:23.358Z,81.32
2023-02-02T09:01:50.149Z,81.07
2023-02-02T09:04:17.078Z,80.78
2023-02-02T09:06:43.975Z,80.78
2023-02-02T09:09:13.739Z,80.42
2023-02-02T09:11:40.852Z,80.64
2023-02-02T09:14:07.798Z,80.28
2023-02-02T09:16:35.445Z,79.46
2023-02-02T09:19:02.433Z,79.54
2023-02-02T09:21:29.338Z,79.06
2023-02-02T09:23:55.984Z,79.56
2023-02-02T09:26:24.362Z,79.39
2023-02-02T09:28:56.207Z,79.48
2023-02-02T09:31:24.100Z,79.51
2023-02-02T09:33:51.055Z,79.58
2023-02-02T09:36:22.858Z,79.51
2023-02-02T09:38:50.965Z,79.69
2023-02-02T09:41:39.187Z,79.64
2023-02-02T09:44:33.948Z,79.56
2023-02-02T09:47:12.466Z,79.77
2023-02-02T09:50:03.578Z,79.72
2023-02-02T09:53:11.441Z,79.44
2023-02-02T09:55:43.519Z,79.19
2023-02-02T09:58:16.118Z,79.58
2023-02-02T10:01:04.852Z,79.37
2023-02-02T10:03:49.839Z,78.88
2023-02-02T10:06:38.696Z,78.20
2023-02-02T10:09:30.847Z,78.45
2023-02-02T10:12:04.530Z,77.74
2023-02-02T10:14:42.180Z,77.41
2023-02-02T10:17:35.077Z,76.76
2023-02-02T10:20:14.488Z,76.30
2023-02-02T10:22:42.006Z,76.37
2023-02-02T10:25:14.368Z,76.60
2023-02-02T10:27:46.530Z,76.53
2023-02-02T10:30:19.777Z,76.19
2023-02-02T10:33:05.136Z,76.01
2023-02-02T10:35:54.343Z,75.83
2023-02-02T10:38:47.971Z,76.25
2023-02-02T10:41:32.578Z,76.01
2023-02-02T10:44:15.805Z,75.73
2023-02-02T10:46:49.424Z,75.87
2023-02-02T10:49:31.218Z,76.16
2023-02-02T10:52:06.557Z,75.58
2023-02-02T10:54:57.742Z,75.17
2023-02-02T10:57:53.764Z,75.46
2023-02-02T11:00:39.882Z,74.72
2023-02-02T11:03:10.176Z,74.41
2023-02-02T11:05:55.678Z,74.37
2023-02-02T11:08:43.327Z,74.69
2023-02-02T11:11:17.290Z,73.89
2023-02-02T11:13:55.063Z,73.80
2023-02-02T11:16:28.452Z,74.11
2023-02-02T11:18:59.808Z,74.20
2023-02-02T11:21:33.171Z,73.51
2023-02-02T11:24:02.979Z,73.44
2023-02-02T11:26:52.398Z,73.20
2023-02-02T11:29:30.979Z,72.59
2023-02-02T11:31:57.808Z,72.92
2023-02-02T11:34:29.342Z,72.68
2023-02-02T11:37:15.440Z,72.37
2023-02-02T11:39:43.306Z,72.11
2023-02-02T11:42:19.080Z,72.41
2023-02-02T11:44:57.905Z,72.07
2023-02-02T11:47:31.146Z,72.17
2023-02-02T11:50:00.909Z,72.11
2023-02-02T11:52:32.692Z,71.55
2023-02-02T11:55:13.988Z,71.49
2023-02-02T11:57:40.588Z,71.91
2023-02-02T12:00:10.126Z,71.86
2023-02-02T12:02:36.713Z,72.33
2023-02-02T12:05:13.377Z,71.72
2023-02-02T12:07:42.452Z,71.46
2023-02-02T12:10:26.828Z,71.31
2023-02-02T12:13:07.733Z,71.04
2023-02-02T12:15:46.383Z,71.50
2023-02-02T12:18:31.513Z,71.59
2023-02-02T12:21:05.096Z,70.95
2023-02-02T12:23:34.492Z,71.33
2023-02-02T12:26:04.427Z,71.84
2023-02-02T12:28:49.486Z,72.47
2023-02-02T12:32:01.407Z,72.20
2023-02-02T12:34:40.572Z,71.93
2023-02-02T12:37:17.173Z,72.14
2023-02-02T12:40:06.623Z,72.44
2023-02-02T12:42:33.148Z,72.69
2023-02-02T12:45:38.051Z,72.71
2023-02-02T12:48:18.073Z,73.02
2023-02-02T12:50:44.616Z,72.24
2023-02-02T12:53:32.950Z,72.72
2023-02-02T12:56:40.024Z,72.63
2023-02-02T12:59:33.807Z,72.73
2023-02-02T13:02:10.700Z,72.81
2023-02-02T13:07:49.868Z,72.82
2023-02-02T13:10:31.663Z,72.58
2023-02-02T13:13:04.486Z,72.61
2023-02-02T13:15:37.250Z,72.51
2023-02-02T13:18:10.733Z,72.88
2023-02-02T13:20:43.757Z,72.76
2023-02-02T13:23:21.340Z,72.74
2023-02-02T13:25:52.464Z,72.91
2023-02-02T13:28:36.929Z,72.89
2023-02-02T13:31:09.960Z,73.19
2023-02-02T13:33:38.875Z,73.11
2023-02-02T13:36:29.703Z,72.81
2023-02-02T13:39:00.332Z,72.76
2023-02-02T13:41:27.824Z,72.78
2023-02-02T13:44:21.675Z,72.62
2023-02-02T13:47:05.566Z,72.17
2023-02-02T13:49:41.672Z,72.48
2023-02-02T13:52:20.280Z,71.69
2023-02-02T13:55:14.343Z,71.59
2023-02-02T13:58:05.065Z,71.18
2023-02-02T14:00:38.127Z,71.37
2023-02-02T14:03:21.700Z,71.10
2023-02-02T14:06:05.272Z,70.93
2023-02-02T14:08:32.499Z,71.09
2023-02-02T14:11:02.383Z,71.53
2023-02-02T14:13:56.341Z,71.64
2023-02-02T14:16:31.774Z,72.23
2023-02-02T14:19:06.595Z,72.40
2023-02-02T14:21:33.300Z,72.39
2023-02-02T14:24:34.554Z,72.08
2023-02-02T14:27:07.692Z,71.93
2023-02-02T14:29:36.723Z,72.33
2023-02-02T14:32:06.786Z,72.18
2023-02-02T14:34:34.296Z,71.96
2023-02-02T14:37:22.993Z,72.16
2023-02-02T14:40:08.565Z,72.03
2023-02-02T14:43:02.759Z,72.31
2023-02-02T14:45:32.164Z,72.06
2023-02-02T14:48:18.356Z,72.19
2023-02-02T14:50:53.586Z,72.14
2023-02-02T14:53:20.006Z,72.18
2023-02-02T14:55:55.823Z,72.15
2023-02-02T14:58:36.104Z,72.07
2023-02-02T15:01:18.333Z,72.53
2023-02-02T15:03:47.906Z,72.40
2023-02-02T15:06:29.380Z,72.49
2023-02-02T15:09:20.756Z,72.76
2023-02-02T15:12:00.992Z,72.35
2023-02-02T15:15:05.561Z,72.64
2023-02-02T15:17:53.413Z,72.74
2023-02-02T15:20:22.744Z,72.33
2023-02-02T15:23:06.973Z,72.06
2023-02-02T15:25:54.296Z,71.94
2023-02-02T15:28:58.364Z,71.27
2023-02-02T15:31:46.943Z,71.14
2023-02-02T15:34:22.336Z,70.65
2023-02-02T15:36:52.904Z,70.88
2023-02-02T15:39:31.125Z,70.96
2023-02-02T15:42:19.211Z,70.66
2023-02-02T15:44:45.755Z,70.83
2023-02-02T15:47:30.294Z,71.18
2023-02-02T15:49:57.258Z,70.88
2023-02-02T15:52:30.513Z,70.83
2023-02-02T15:54:59.169Z,70.77
2023-02-02T15:57:35.991Z,70.88
2023-02-02T16:00:25.892Z,71.13
2023-02-02T16:03:07.095Z,71.38
2023-02-02T16:05:36.710Z,71.33
2023-02-02T16:08:08.516Z,71.55
2023-02-02T16:10:35.345Z,71.59
2023-02-02T16:13:02.253Z,71.78
2023-02-02T16:15:30.820Z,71.42
2023-02-02T16:18:13.448Z,71.72
2023-02-02T16:20:41.948Z,71.54
2023-02-02T16:23:15.740Z,71.64
2023-02-02T16:25:50.767Z,71.28
2023-02-02T16:28:20.433Z,71.22
2023-02-02T16:30:47.993Z,71.82
2023-02-02T16:33:29.168Z,71.64
2023-02-02T16:35:56.727Z,71.19
2023-02-02T16:38:30.075Z,71.41
2023-02-02T16:41:14.486Z,71.61
2023-02-02T16:43:42.444Z,71.09
2023-02-02T16:46:14.693Z,71.41
2023-02-02T16:48:55.221Z,71.47
2023-02-02T16:51:28.366Z,71.51
2023-02-02T16:54:13.750Z,71.26
2023-02-02T16:56:41.474Z,71.41
2023-02-02T16:59:21.958Z,71.71
2023-02-02T17:01:52.286Z,71.96
2023-02-02T17:04:25.013Z,71.71
2023-02-02T17:06:53.476Z,71.80
2023-02-02T17:09:26.936Z,71.76
2023-02-02T17:12:30.759Z,71.75
2023-02-02T17:15:05.572Z,72.06
2023-02-02T17:17:32.211Z,72.36
2023-02-02T17:19:58.755Z,72.67
2023-02-02T17:22:27.590Z,72.54
2023-02-02T17:24:54.257Z,73.19
2023-02-02T17:27:34.080Z,73.19
2023-02-02T17:30:02.156Z,72.93
2023-02-02T17:32:28.720Z,73.18
2023-02-02T17:34:55.774Z,73.33
2023-02-02T17:37:22.377Z,73.48
2023-02-02T17:39:50.693Z,73.53
2023-02-02T17:42:27.607Z,73.39
2023-02-02T17:44:54.145Z,73.31
2023-02-02T17:47:20.618Z,73.37
2023-02-02T17:49:47.155Z,73.72
2023-02-02T17:52:13.977Z,74.28
2023-02-02T17:54:40.450Z,73.89
2023-02-02T17:57:06.986Z,74.55
2023-02-02T17:59:33.572Z,74.71
2023-02-02T18:02:01.156Z,74.84
2023-02-02T18:04:27.799Z,75.68
2023-02-02T18:06:54.311Z,75.47
2023-02-02T18:09:20.787Z,76.12
2023-02-02T18:11:49.856Z,76.53
2023-02-02T18:14:16.487Z,76.98
2023-02-02T18:16:42.975Z,77.37
2023-02-02T18:19:10.323Z,77.43
2023-02-02T18:21:37.394Z,77.75
2023-02-02T18:24:04.209Z,77.69
2023-02-02T18:26:32.551Z,77.44
2023-02-02T18:28:59.412Z,77.69
2023-02-02T18:31:27.049Z,78.05
2023-02-02T18:33:54.414Z,77.97
2023-02-02T18:36:23.425Z,78.78
2023-02-02T18:38:51.318Z,78.69
2023-02-02T18:41:19.499Z,79.13
2023-02-02T18:43:45.972Z,79.15
2023-02-02T18:46:14.751Z,79.23
2023-02-02T18:48:42.634Z,79.59
2023-02-02T18:51:16.122Z,80.22
2023-02-02T18:53:46.929Z,80.16
2023-02-02T18:56:14.961Z,80.45
2023-02-02T18:58:41.794Z,80.55
2023-02-02T19:01:16.471Z,80.74
2023-02-02T19:03:47.319Z,80.73
2023-02-02T19:06:32.289Z,80.72
2023-02-02T19:08:58.770Z,80.49
2023-02-02T19:11:28.959Z,80.98
2023-02-02T19:13:56.125Z,81.76
2023-02-02T19:16:28.723Z,81.30
2023-02-02T19:19:04.426Z,81.50
2023-02-02T19:21:31.163Z,81.73
2023-02-02T19:23:59.629Z,81.95
2023-02-02T19:26:28.028Z,82.24
2023-02-02T19:29:01.338Z,81.99
2023-02-02T19:31:28.119Z,82.25
2023-02-02T19:33:54.695Z,82.55
2023-02-02T19:36:21.108Z,82.55
2023-02-02T19:38:49.792Z,82.85
2023-02-02T19:41:22.037Z,82.77
2023-02-02T19:43:51.523Z,82.99
2023-02-02T19:46:22.998Z,83.11
2023-02-02T19:48:53.086Z,83.07
2023-02-02T19:51:34.784Z,83.01
2023-02-02T19:54:01.373Z,83.46
2023-02-02T19:56:35.976Z,83.13
2023-02-02T19:59:02.702Z,82.90
2023-02-02T20:01:34.676Z,83.31
2023-02-02T20:04:03.604Z,83.40
2023-02-02T20:06:32.282Z,83.24
2023-02-02T20:09:00.874Z,82.94
2023-02-02T20:11:37.053Z,83.14
2023-02-02T20:14:21.552Z,83.04
2023-02-02T20:16:56.255Z,83.12
2023-02-02T20:19:29.447Z,83.28
2023-02-02T20:21:56.842Z,82.97
2023-02-02T20:24:40.243Z,82.84
2023-02-02T20:27:33.890Z,83.08
2023-02-02T20:30:17.772Z,82.95
2023-02-02T20:32:44.562Z,82.78
2023-02-02T20:35:24.963Z,82.97
2023-02-02T20:37:51.827Z,83.06
2023-02-02T20:40:21.283Z,83.14
2023-02-02T20:42:48.716Z,83.00
2023-02-02T20:45:17.464Z,82.98
2023-02-02T20:47:45.423Z,83.27
2023-02-02T20:50:14.665Z,83.52
2023-02-02T20:52:41.764Z,83.29
2023-02-02T20:55:09.847Z,83.39
2023-02-02T20:57:38.457Z,83.61
2023-02-02T21:00:07.536Z,83.12
2023-02-02T21:02:34.099Z,83.21
2023-02-02T21:05:01.408Z,83.12
2023-02-02T21:07:28.004Z,83.24
2023-02-02T21:09:54.468Z,83.32
2023-02-02T21:12:25.246Z,83.33
2023-02-02T21:14:54.882Z,83.19
2023-02-02T21:17:21.438Z,83.45
2023-02-02T21:19:47.956Z,83.33
2023-02-02T21:22:14.816Z,83.50
2023-02-02T21:24:42.433Z,83.88
2023-02-02T21:27:09.282Z,83.59
2023-02-02T21:29:36.141Z,83.34
2023-02-02T21:32:03.147Z,83.63
2023-02-02T21:34:31.142Z,83.87
2023-02-02T21:36:58.506Z,84.03
2023-02-02T21:39:34.642Z,84.09
2023-02-02T21:42:07.244Z,84.11
2023-02-02T21:44:36.221Z,84.39
2023-02-02T21:47:02.775Z,84.49
2023-02-02T21:49:36.841Z,84.35
2023-02-02T21:52:15.833Z,84.76
2023-02-02T21:54:43.396Z,84.45
2023-02-02T21:57:24.854Z,84.64
2023-02-02T21:59:55.302Z,84.72
2023-02-02T22:02:42.570Z,84.77
2023-02-02T22:05:18.561Z,84.66
2023-02-02T22:07:47.670Z,84.44
2023-02-02T22:10:36.995Z,84.70
2023-02-02T22:13:33.469Z,84.43
2023-02-02T22:16:00.011Z,85.17
2023-02-02T22:18:26.732Z,84.84
2023-02-02T22:20:56.243Z,85.00
2023-02-02T22:23:25.226Z,84.65
2023-02-02T22:25:54.222Z,85.28
2023-02-02T22:28:27.171Z,85.17
2023-02-02T22:30:55.580Z,85.17
2023-02-02T22:33:23.223Z,85.10
2023-02-02T22:35:49.792Z,84.95
2023-02-02T22:38:21.910Z,85.27
2023-02-02T22:40:49.269Z,84.96
2023-02-02T22:43:17.626Z,85.36
2023-02-02T22:45:45.094Z,85.04
2023-02-02T22:48:13.003Z,85.18
2023-02-02T22:50:39.926Z,85.39
2023-02-02T22:53:06.467Z,85.37
2023-02-02T22:55:33.891Z,85.48
2023-02-02T22:58:00.960Z,85.32
2023-02-02T23:00:29.804Z,85.71
2023-02-02T23:02:57.394Z,85.53
2023-02-02T23:05:25.735Z,85.00
2023-02-02T23:07:53.760Z,85.49
2023-02-02T23:10:23.240Z,85.27
2023-02-02T23:12:50.737Z,85.36
2023-02-02T23:15:17.267Z,85.47
2023-02-02T23:17:43.772Z,85.40
2023-02-02T23:20:13.047Z,85.38
2023-02-02T23:22:40.045Z,85.10
2023-02-02T23:25:07.243Z,84.77
2023-02-02T23:27:33.821Z,85.23
2023-02-02T23:30:00.333Z,84.85
2023-02-02T23:32:27.144Z,85.06
2023-02-02T23:34:53.660Z,84.55
2023-02-02T23:37:20.219Z,84.64
2023-02-02T23:39:46.692Z,84.84
2023-02-02T23:42:13.338Z,84.46
2023-02-02T23:44:39.835Z,84.51
2023-02-02T23:47:06.646Z,84.72
2023-02-02T23:49:34.219Z,84.95
2023-02-02T23:52:00.957Z,84.64
2023-02-02T23:54:28.526Z,84.47
2023-02-02T23:56:56.141Z,84.39
2023-02-02T23:59:22.906Z,84.69
